Time;durP1;ratioP1;P1;durP2;ratioP2;P2;SDS_P1;SDS_P2;PMS_P1;PMS_P2;Temp;Humidity;BMP_temperature;BMP_pressure;BME280_temperature;BME280_humidity;BME280_pressure;Samples;Min_cycle;Max_cycle;Signal;HPM_P1;HPM_P2
2022/04/03 00:00:58;;;;;;;0.45;0.35;;;20.40;27.00;;;;;;6280769;28;20035;-43
2022/04/03 00:04:01;;;;;;;0.35;0.22;;;20.40;27.10;;;;;;6298387;27;20039;-45
2022/04/03 00:07:03;;;;;;;1.00;0.40;;;20.40;27.00;;;;;;6290319;27;20116;-40
2022/04/03 00:10:05;;;;;;;0.68;0.30;;;20.40;27.10;;;;;;6281166;27;20038;-43
2022/04/03 00:13:07;;;;;;;0.57;0.30;;;20.40;27.00;;;;;;6289709;28;20814;-41
2022/04/03 00:16:09;;;;;;;0.60;0.40;;;20.40;27.00;;;;;;6275435;28;21091;-43
2022/04/03 00:19:11;;;;;;;0.43;0.30;;;20.30;27.10;;;;;;6282337;27;20074;-42
2022/04/03 00:22:12;;;;;;;;;;;20.30;27.00;;;;;;6294417;28;20892;-43
2022/04/03 00:25:14;;;;;;;0.43;0.28;;;20.30;27.10;;;;;;6289942;28;19927;-43
2022/04/03 00:28:16;;;;;;;0.25;0.20;;;20.30;27.00;;;;;;6284199;27;20076;-45
2022/04/03 00:31:20;;;;;;;0.50;0.32;;;20.30;27.10;;;;;;6301692;27;20073;-41
2022/04/03 00:34:21;;;;;;;0.50;0.20;;;20.30;27.10;;;;;;6291096;28;20039;-41
2022/04/03 00:37:23;;;;;;;0.60;0.38;;;20.20;27.00;;;;;;6296092;27;20055;-43
2022/04/03 00:40:26;;;;;;;;;;;20.30;27.10;;;;;;6292786;28;20069;-44
2022/04/03 00:43:28;;;;;;;0.55;0.30;;;20.10;27.00;;;;;;6290927;28;19990;-43
2022/04/03 00:46:33;;;;;;;0.40;0.22;;;20.00;27.00;;;;;;6255150;28;20509;-42
2022/04/03 00:49:35;;;;;;;0.40;0.40;;;20.20;27.10;;;;;;6275666;27;22155;-44
2022/04/03 00:52:37;;;;;;;0.38;0.30;;;20.20;27.10;;;;;;6299811;27;20050;-42
2022/04/03 00:55:41;;;;;;;0.40;0.30;;;20.10;27.10;;;;;;6292424;27;20061;-43
2022/04/03 00:58:42;;;;;;;0.57;0.32;;;20.20;27.10;;;;;;6295590;28;20047;-43
2022/04/03 01:01:45;;;;;;;0.28;0.20;;;20.20;27.10;;;;;;6300570;27;20148;-44
2022/04/03 01:04:47;;;;;;;0.50;0.35;;;20.30;27.20;;;;;;6300029;27;20027;-41
2022/04/03 01:07:52;;;;;;;0.50;0.40;;;20.00;27.10;;;;;;6298115;27;20932;-41
2022/04/03 01:10:53;;;;;;;;;;;20.10;27.10;;;;;;6283752;27;20101;-42
2022/04/03 01:13:55;;;;;;;0.52;0.28;;;20.10;27.20;;;;;;6302244;27;19924;-41
2022/04/03 01:16:57;;;;;;;0.52;0.30;;;20.10;27.20;;;;;;6274631;28;20048;-43
2022/04/03 01:19:59;;;;;;;0.40;0.28;;;20.00;27.60;;;;;;6294185;27;20232;-41
2022/04/03 01:23:00;;;;;;;;;;;20.00;27.10;;;;;;6290710;27;20195;-43
2022/04/03 01:26:02;;;;;;;1.02;0.30;;;20.10;27.20;;;;;;6294870;27;20272;-41
2022/04/03 01:29:04;;;;;;;0.73;0.43;;;20.10;27.20;;;;;;6284721;27;20150;-41
2022/04/03 01:32:07;;;;;;;0.47;0.30;;;20.10;27.20;;;;;;6293945;27;20035;-42
2022/04/03 01:35:09;;;;;;;0.30;0.20;;;20.10;27.30;;;;;;6275491;27;20047;-41
2022/04/03 01:38:11;;;;;;;0.30;0.20;;;20.10;27.30;;;;;;6277382;28;20043;-41
2022/04/03 01:41:13;;;;;;;;;;;20.10;27.30;;;;;;6285931;27;20324;-43
2022/04/03 01:44:15;;;;;;;;;;;20.00;27.30;;;;;;6286337;27;20377;-42
2022/04/03 01:47:17;;;;;;;0.35;0.30;;;20.00;27.30;;;;;;6284476;28;20030;-42
2022/04/03 01:50:19;;;;;;;0.50;0.32;;;20.00;27.20;;;;;;6279640;28;20416;-41
2022/04/03 01:53:20;;;;;;;;;;;20.10;27.40;;;;;;6290845;27;20751;-41
2022/04/03 01:56:22;;;;;;;0.60;0.40;;;20.00;27.30;;;;;;6260751;28;20481;-41
2022/04/03 01:59:24;;;;;;;0.50;0.30;;;19.90;27.30;;;;;;6271172;28;20546;-41
2022/04/03 02:02:25;;;;;;;;;;;20.00;27.40;;;;;;6287909;27;20050;-41
2022/04/03 02:05:28;;;;;;;0.35;0.20;;;19.90;27.30;;;;;;6290108;27;19993;-41
2022/04/03 02:08:29;;;;;;;;;;;19.90;27.30;;;;;;6277325;27;20230;-41
2022/04/03 02:11:31;;;;;;;0.30;0.20;;;19.90;27.40;;;;;;6283012;27;19971;-42
2022/04/03 02:14:33;;;;;;;0.50;0.22;;;19.70;27.30;;;;;;6286831;27;20084;-42
2022/04/03 02:17:34;;;;;;;0.75;0.40;;;19.80;27.40;;;;;;6275030;27;20552;-41
2022/04/03 02:20:36;;;;;;;;;;;19.90;27.50;;;;;;6293864;27;20070;-42
2022/04/03 02:23:38;;;;;;;0.38;0.20;;;19.90;27.50;;;;;;6280626;27;20237;-41
2022/04/03 02:26:41;;;;;;;0.25;0.20;;;19.90;27.50;;;;;;6266355;27;20135;-42
2022/04/03 02:29:42;;;;;;;0.52;0.28;;;19.90;27.50;;;;;;6270154;28;20462;-41
2022/04/03 02:32:44;;;;;;;;;;;20.00;27.60;;;;;;6261078;28;20372;-43
2022/04/03 02:35:45;;;;;;;0.50;0.38;;;19.90;27.50;;;;;;6276049;28;19923;-41
2022/04/03 02:38:47;;;;;;;0.30;0.30;;;19.90;27.50;;;;;;6275252;27;20054;-41
2022/04/03 02:41:49;;;;;;;0.40;0.30;;;19.80;27.50;;;;;;6274435;28;20498;-40
2022/04/03 02:44:52;;;;;;;0.60;0.30;;;19.80;27.50;;;;;;6285317;27;20247;-43
2022/04/03 02:47:55;;;;;;;0.43;0.30;;;19.90;27.60;;;;;;6269087;28;20054;-43
2022/04/03 02:50:57;;;;;;;0.50;0.30;;;19.80;27.60;;;;;;6270790;28;20042;-42
2022/04/03 02:53:58;;;;;;;;;;;19.80;27.60;;;;;;6288496;27;20619;-41
2022/04/03 02:57:01;;;;;;;0.98;0.40;;;19.80;27.60;;;;;;6290784;27;19927;-41
2022/04/03 03:00:03;;;;;;;0.40;0.32;;;19.80;27.60;;;;;;6259489;28;20239;-41
2022/04/03 03:03:07;;;;;;;0.35;0.20;;;19.80;27.60;;;;;;6271857;28;20356;-41
2022/04/03 03:06:09;;;;;;;0.47;0.30;;;19.90;27.60;;;;;;6283301;27;20943;-41
2022/04/03 03:09:10;;;;;;;;;;;19.90;27.70;;;;;;6295674;27;20293;-41
2022/04/03 03:12:12;;;;;;;0.40;0.20;;;19.90;27.70;;;;;;6264187;27;20278;-40
2022/04/03 03:15:14;;;;;;;0.68;0.28;;;19.80;27.60;;;;;;6275603;28;20097;-42
2022/04/03 03:18:16;;;;;;;0.93;0.38;;;19.80;27.70;;;;;;6256678;28;20909;-44
2022/04/03 03:21:18;;;;;;;0.25;0.20;;;19.70;27.70;;;;;;6271293;28;20399;-42
2022/04/03 03:24:19;;;;;;;0.47;0.40;;;19.70;27.70;;;;;;6268551;28;20487;-41
2022/04/03 03:27:22;;;;;;;0.55;0.32;;;19.70;27.70;;;;;;6267707;28;20051;-42
2022/04/03 03:30:23;;;;;;;0.68;0.30;;;19.60;27.60;;;;;;6277916;28;20266;-41
2022/04/03 03:33:25;;;;;;;;;;;19.80;27.80;;;;;;6275305;27;20434;-41
2022/04/03 03:36:28;;;;;;;0.40;0.30;;;19.80;27.80;;;;;;6291713;27;20283;-41
2022/04/03 03:39:29;;;;;;;0.35;0.22;;;19.80;27.80;;;;;;6258357;28;20193;-43
2022/04/03 03:42:32;;;;;;;0.30;0.25;;;19.80;27.80;;;;;;6257708;28;20077;-43
2022/04/03 03:45:34;;;;;;;0.22;0.22;;;19.60;27.70;;;;;;6261423;28;20602;-41
2022/04/03 03:48:36;;;;;;;0.60;0.40;;;19.70;27.70;;;;;;6288727;27;20537;-43
2022/04/03 03:51:37;;;;;;;0.40;0.20;;;19.80;27.70;;;;;;6271194;27;20162;-41
2022/04/03 03:54:39;;;;;;;;;;;19.70;27.70;;;;;;6290703;27;20819;-43
2022/04/03 03:57:44;;;;;;;0.30;0.30;;;19.80;27.70;;;;;;6280782;28;20265;-40
2022/04/03 04:00:46;;;;;;;0.45;0.20;;;19.90;27.70;;;;;;6288534;27;20282;-41
2022/04/03 04:03:48;;;;;;;0.30;0.30;;;19.80;27.70;;;;;;6280299;28;20309;-43
2022/04/03 04:06:49;;;;;;;0.68;0.30;;;19.90;27.80;;;;;;6281275;27;20194;-41
2022/04/03 04:09:51;;;;;;;;;;;19.80;27.70;;;;;;6294582;28;20480;-41
2022/04/03 04:12:53;;;;;;;0.40;0.30;;;19.80;27.70;;;;;;6290408;27;20299;-41
2022/04/03 04:15:55;;;;;;;0.40;0.30;;;19.80;27.60;;;;;;6264992;28;20578;-41
2022/04/03 04:18:56;;;;;;;0.47;0.30;;;19.80;27.60;;;;;;6278589;27;20158;-41
2022/04/03 04:21:58;;;;;;;0.30;0.28;;;19.80;27.60;;;;;;6269879;28;20460;-41
2022/04/03 04:25:00;;;;;;;0.47;0.22;;;19.60;27.50;;;;;;6251070;27;20364;-40
2022/04/03 04:28:02;;;;;;;0.88;0.40;;;19.80;27.60;;;;;;6281555;27;20640;-41
2022/04/03 04:31:04;;;;;;;0.52;0.32;;;19.80;27.50;;;;;;6280168;27;20526;-41
2022/04/03 04:34:07;;;;;;;0.82;0.50;;;19.90;27.60;;;;;;6271609;28;20223;-42
2022/04/03 04:37:08;;;;;;;0.40;0.30;;;19.60;27.40;;;;;;6258165;28;20353;-41
2022/04/03 04:40:11;;;;;;;0.68;0.38;;;19.80;27.50;;;;;;6269338;28;20073;-43
2022/04/03 04:43:13;;;;;;;0.57;0.40;;;19.80;27.50;;;;;;6261990;27;20787;-41
2022/04/03 04:46:15;;;;;;;0.80;0.40;;;19.80;27.50;;;;;;6290250;27;20684;-41
2022/04/03 04:49:17;;;;;;;0.50;0.32;;;19.80;27.50;;;;;;6291605;27;20141;-43
2022/04/03 04:52:18;;;;;;;;;;;19.80;27.50;;;;;;6262158;27;20568;-42
2022/04/03 04:55:20;;;;;;;0.50;0.40;;;19.80;27.50;;;;;;6291400;28;20118;-41
2022/04/03 04:58:22;;;;;;;0.45;0.40;;;19.90;27.60;;;;;;6282281;27;20806;-43
2022/04/03 05:01:24;;;;;;;0.73;0.40;;;19.80;27.50;;;;;;6267956;28;20043;-42
2022/04/03 05:04:25;;;;;;;;;;;19.80;27.50;;;;;;6269234;28;20036;-41
2022/04/03 05:07:28;;;;;;;0.47;0.30;;;19.90;27.60;;;;;;6265155;28;20066;-42
2022/04/03 05:10:31;;;;;;;0.60;0.40;;;19.80;27.60;;;;;;6270210;28;20107;-41
2022/04/03 05:13:34;;;;;;;0.47;0.40;;;19.90;27.60;;;;;;6291226;27;20522;-41
2022/04/03 05:16:37;;;;;;;0.50;0.40;;;19.70;27.60;;;;;;6287176;27;20067;-42
2022/04/03 05:19:38;;;;;;;0.60;0.40;;;19.70;27.60;;;;;;6256331;28;20250;-41
2022/04/03 05:22:40;;;;;;;;;;;19.90;27.70;;;;;;6280172;27;20339;-42
2022/04/03 05:25:41;;;;;;;0.50;0.30;;;19.90;27.80;;;;;;6268884;28;19928;-43
2022/04/03 05:28:43;;;;;;;;;;;19.80;27.70;;;;;;6272626;28;20071;-41
2022/04/03 05:31:45;;;;;;;0.55;0.30;;;19.70;27.70;;;;;;6269551;28;20054;-42
2022/04/03 05:34:47;;;;;;;0.32;0.30;;;19.90;27.70;;;;;;6266322;28;20483;-42
2022/04/03 05:37:48;;;;;;;;;;;19.80;27.70;;;;;;6271498;28;20049;-42
2022/04/03 05:40:50;;;;;;;0.38;0.30;;;19.90;27.80;;;;;;6266638;28;19950;-42
2022/04/03 05:43:52;;;;;;;;;;;19.70;27.70;;;;;;6250294;28;20531;-42
2022/04/03 05:46:53;;;;;;;0.43;0.28;;;19.90;27.80;;;;;;6268524;28;20183;-42
2022/04/03 05:49:55;;;;;;;0.32;0.30;;;19.90;27.80;;;;;;6267401;27;20389;-41
2022/04/03 05:52:56;;;;;;;0.25;0.20;;;19.80;27.80;;;;;;6271554;28;20068;-42
2022/04/03 05:55:58;;;;;;;0.50;0.45;;;19.90;27.90;;;;;;6260860;28;20287;-41
2022/04/03 05:59:00;;;;;;;;;;;20.00;27.90;;;;;;6276970;27;20413;-45
2022/04/03 06:02:02;;;;;;;0.30;0.30;;;19.90;27.90;;;;;;6270482;28;20231;-41
2022/04/03 06:05:04;;;;;;;0.20;0.20;;;19.90;27.90;;;;;;6279111;27;20075;-41
2022/04/03 06:08:07;;;;;;;0.40;0.30;;;20.00;27.90;;;;;;6283266;27;20759;-41
2022/04/03 06:11:09;;;;;;;0.40;0.40;;;19.80;27.80;;;;;;6268208;27;20551;-41
2022/04/03 06:14:12;;;;;;;0.25;0.20;;;19.90;27.90;;;;;;6265907;28;20939;-41
2022/04/03 06:17:14;;;;;;;0.50;0.30;;;19.90;27.90;;;;;;6280219;27;20083;-41
2022/04/03 06:20:15;;;;;;;;;;;19.90;27.90;;;;;;6271975;28;20586;-42
2022/04/03 06:23:18;;;;;;;0.60;0.40;;;19.80;27.90;;;;;;6262082;27;20244;-41
2022/04/03 06:26:20;;;;;;;0.70;0.40;;;19.90;27.90;;;;;;6244687;27;20089;-41
2022/04/03 06:29:22;;;;;;;0.40;0.25;;;19.70;27.80;;;;;;6271091;28;20422;-42
2022/04/03 06:32:23;;;;;;;0.50;0.40;;;19.90;27.90;;;;;;6274889;28;20233;-43
2022/04/03 06:35:25;;;;;;;0.22;0.22;;;19.80;27.90;;;;;;6265008;28;20288;-42
2022/04/03 06:38:27;;;;;;;0.40;0.30;;;20.00;28.00;;;;;;6287569;27;20044;-42
2022/04/03 06:41:28;;;;;;;;;;;20.00;28.00;;;;;;6287469;27;20870;-41
2022/04/03 06:44:31;;;;;;;0.32;0.30;;;20.00;28.00;;;;;;6269867;27;20417;-43
2022/04/03 06:47:33;;;;;;;0.45;0.30;;;19.90;27.90;;;;;;6247573;27;20446;-42
2022/04/03 06:50:35;;;;;;;0.40;0.35;;;19.90;28.00;;;;;;6284738;28;20314;-43
2022/04/03 06:53:36;;;;;;;0.55;0.43;;;19.90;28.00;;;;;;6261780;28;20146;-41
2022/04/03 06:56:38;;;;;;;;;;;20.10;28.10;;;;;;6274685;28;20081;-41
2022/04/03 06:59:40;;;;;;;0.25;0.20;;;20.00;28.10;;;;;;6280879;28;19923;-41
2022/04/03 07:02:41;;;;;;;0.30;0.20;;;19.90;28.10;;;;;;6264078;27;20484;-42
2022/04/03 07:05:43;;;;;;;0.30;0.22;;;19.90;28.10;;;;;;6287360;27;20051;-42
2022/04/03 07:08:47;;;;;;;0.63;0.40;;;20.00;28.20;;;;;;6265005;28;20036;-42
2022/04/03 07:11:48;;;;;;;0.43;0.30;;;19.80;28.10;;;;;;6265842;27;20264;-41
2022/04/03 07:14:50;;;;;;;;;;;20.00;28.20;;;;;;6264096;27;20105;-41
2022/04/03 07:17:52;;;;;;;;;;;20.00;28.20;;;;;;6271023;28;19931;-41
2022/04/03 07:20:53;;;;;;;0.57;0.40;;;20.10;28.20;;;;;;6269851;28;20417;-44
2022/04/03 07:23:54;;;;;;;;;;;20.00;28.20;;;;;;6266530;28;20470;-43
2022/04/03 07:26:56;;;;;;;0.45;0.22;;;20.00;28.20;;;;;;6263617;28;20333;-41
2022/04/03 07:29:59;;;;;;;0.32;0.22;;;20.10;28.20;;;;;;6252374;28;20182;-42
2022/04/03 07:33:00;;;;;;;0.57;0.40;;;20.00;28.20;;;;;;6265475;28;20066;-41
2022/04/03 07:36:03;;;;;;;;;;;20.00;28.20;;;;;;6277365;27;20335;-41
2022/04/03 07:39:05;;;;;;;0.63;0.30;;;20.10;28.20;;;;;;6284826;27;19934;-43
2022/04/03 07:42:07;;;;;;;;;;;19.90;28.10;;;;;;6253524;28;20295;-41
2022/04/03 07:45:11;;;;;;;0.30;0.20;;;20.00;28.20;;;;;;6285756;27;20363;-41
2022/04/03 07:48:12;;;;;;;0.22;0.20;;;20.00;28.10;;;;;;6271951;27;20125;-41
2022/04/03 07:51:14;;;;;;;0.60;0.30;;;20.10;28.10;;;;;;6285588;27;20250;-44
2022/04/03 07:54:15;;;;;;;;;;;20.10;28.20;;;;;;6282637;28;20101;-41
2022/04/03 07:57:18;;;;;;;0.73;0.40;;;20.20;28.20;;;;;;6264421;28;20329;-42
2022/04/03 08:00:20;;;;;;;0.30;0.20;;;20.20;28.20;;;;;;6256683;28;20496;-42
2022/04/03 08:03:22;;;;;;;0.30;0.30;;;20.20;28.20;;;;;;6280408;28;20130;-43
2022/04/03 08:06:24;;;;;;;0.52;0.10;;;20.20;28.20;;;;;;6277594;27;20128;-41
2022/04/03 08:09:25;;;;;;;0.30;0.30;;;20.20;28.20;;;;;;6261663;28;20032;-42
2022/04/03 08:12:27;;;;;;;;;;;20.20;28.20;;;;;;6282640;28;20158;-42
2022/04/03 08:15:29;;;;;;;0.20;0.20;;;20.30;28.20;;;;;;6276834;27;20521;-47
2022/04/03 08:18:30;;;;;;;0.30;0.22;;;20.30;28.10;;;;;;6259895;28;20058;-41
2022/04/03 08:21:37;;;;;;;0.22;0.20;;;20.20;28.10;;;;;;6285740;27;20062;-42
2022/04/03 08:24:39;;;;;;;0.10;0.10;;;20.40;28.20;;;;;;6266936;27;20316;-42
2022/04/03 08:27:43;;;;;;;0.20;0.20;;;20.50;28.20;;;;;;6238611;28;20749;-41
2022/04/03 08:30:45;;;;;;;0.20;0.20;;;20.50;28.70;;;;;;6261159;28;20555;-42
2022/04/03 08:33:47;;;;;;;0.43;0.20;;;20.40;28.10;;;;;;6264340;28;20488;-41
2022/04/03 08:36:49;;;;;;;0.28;0.20;;;20.50;28.10;;;;;;6268719;27;20039;-41
2022/04/03 08:39:50;;;;;;;0.28;0.20;;;20.60;28.10;;;;;;6269054;27;20035;-44
2022/04/03 08:42:52;;;;;;;;;;;20.60;28.00;;;;;;6272713;28;20993;-41
2022/04/03 08:45:55;;;;;;;0.30;0.20;;;20.60;27.90;;;;;;6277707;27;20247;-41
2022/04/03 08:48:58;;;;;;;0.50;0.30;;;20.60;27.90;;;;;;6272882;28;21049;-42
2022/04/03 08:52:00;;;;;;;0.17;0.10;;;20.70;27.80;;;;;;6244484;28;21067;-42
2022/04/03 08:55:04;;;;;;;0.47;0.20;;;20.60;27.80;;;;;;6272625;27;20450;-42
2022/04/03 08:58:05;;;;;;;0.17;0.13;;;20.60;27.60;;;;;;6278212;27;20082;-42
2022/04/03 09:01:08;;;;;;;0.32;0.22;;;20.70;27.60;;;;;;6269634;28;20537;-42
2022/04/03 09:04:09;;;;;;;0.20;0.20;;;20.70;27.50;;;;;;6280266;27;20048;-42
2022/04/03 09:07:17;;;;;;;0.63;0.20;;;20.80;27.50;;;;;;6279604;28;20409;-41
2022/04/03 09:10:18;;;;;;;0.15;0.10;;;20.70;27.40;;;;;;6268987;28;20324;-42
2022/04/03 09:13:23;;;;;;;;;;;20.70;27.40;;;;;;6259143;28;20048;-41
2022/04/03 09:16:38;;;;;;;0.20;0.10;;;20.80;27.40;;;;;;6266789;27;19969;-41
2022/04/03 09:19:40;;;;;;;0.28;0.20;;;20.70;27.20;;;;;;6287192;27;20259;-43
2022/04/03 09:22:42;;;;;;;;;;;20.70;27.20;;;;;;6267736;28;20353;-43
2022/04/03 09:25:44;;;;;;;0.30;0.22;;;20.60;27.10;;;;;;6241770;27;21422;-43
2022/04/03 09:28:46;;;;;;;0.68;0.30;;;20.90;27.20;;;;;;6280533;27;20063;-42
2022/04/03 09:31:48;;;;;;;0.35;0.30;;;20.80;27.10;;;;;;6279363;27;20083;-41
2022/04/03 09:34:56;;;;;;;0.13;0.10;;;20.90;27.00;;;;;;6279797;27;20493;-44
2022/04/03 09:38:08;;;;;;;0.20;0.20;;;20.90;26.90;;;;;;6255053;28;20078;-44
2022/04/03 09:41:09;;;;;;;;;;;20.90;26.90;;;;;;6246753;28;20401;-42
2022/04/03 09:44:17;;;;;;;0.40;0.28;;;20.90;26.80;;;;;;6270883;27;19924;-43
2022/04/03 09:47:21;;;;;;;0.20;0.15;;;20.80;26.80;;;;;;6241487;28;20354;-41
2022/04/03 09:50:23;;;;;;;0.30;0.30;;;20.90;26.80;;;;;;6262122;28;20306;-41
2022/04/03 09:53:26;;;;;;;0.32;0.20;;;21.00;26.70;;;;;;6285402;27;20124;-43
2022/04/03 09:56:31;;;;;;;0.10;0.10;;;21.10;26.60;;;;;;6265718;27;20044;-41
2022/04/03 09:59:33;;;;;;;0.20;0.10;;;20.90;26.40;;;;;;6253515;27;20123;-43
2022/04/03 10:02:35;;;;;;;0.20;0.10;;;21.10;26.50;;;;;;6264800;28;20432;-42
2022/04/03 10:05:37;;;;;;;0.15;0.10;;;21.20;26.40;;;;;;6267023;28;20510;-42
2022/04/03 10:08:39;;;;;;;0.25;0.25;;;21.10;26.20;;;;;;6269805;28;20134;-43
2022/04/03 10:11:42;;;;;;;0.60;0.28;;;21.10;26.20;;;;;;6283081;28;20085;-41
2022/04/03 10:14:44;;;;;;;0.55;0.20;;;21.00;26.10;;;;;;6240759;28;20040;-44
2022/04/03 10:17:46;;;;;;;0.20;0.10;;;21.10;26.00;;;;;;6275163;28;20149;-43
2022/04/03 10:20:49;;;;;;;0.20;0.10;;;21.20;26.00;;;;;;6284922;27;20504;-42
2022/04/03 10:23:53;;;;;;;0.10;0.10;;;21.30;26.00;;;;;;6282755;27;20207;-41
2022/04/03 10:26:59;;;;;;;0.35;0.20;;;21.20;25.90;;;;;;6250064;28;20050;-42
2022/04/03 10:30:01;;;;;;;0.63;0.20;;;21.20;25.80;;;;;;6256839;28;20706;-41
2022/04/03 10:33:04;;;;;;;0.68;0.28;;;21.10;25.80;;;;;;6263607;27;20747;-41
2022/04/03 10:36:07;;;;;;;0.20;0.17;;;21.30;25.80;;;;;;6261042;27;20165;-43
2022/04/03 10:39:09;;;;;;;0.15;0.15;;;21.30;25.80;;;;;;6241889;28;20394;-42
2022/04/03 10:42:17;;;;;;;0.10;0.10;;;21.30;25.70;;;;;;6243254;28;20260;-41
2022/04/03 10:45:23;;;;;;;0.20;0.13;;;21.30;25.70;;;;;;6256944;28;20278;-42
2022/04/03 10:48:28;;;;;;;0.25;0.20;;;21.30;25.70;;;;;;6243897;28;20384;-43
2022/04/03 10:51:31;;;;;;;0.22;0.10;;;21.40;25.70;;;;;;6265822;27;20973;-41
2022/04/03 10:54:41;;;;;;;0.10;0.10;;;21.40;25.60;;;;;;6261996;28;20410;-41
2022/04/03 10:57:44;;;;;;;0.10;0.10;;;21.40;25.60;;;;;;6254934;28;20375;-43
2022/04/03 11:00:45;;;;;;;0.10;0.10;;;21.50;25.60;;;;;;6260811;27;20625;-44
2022/04/03 11:03:55;;;;;;;0.20;0.10;;;21.40;25.50;;;;;;6263491;28;20136;-41
2022/04/03 11:07:12;;;;;;;0.40;0.10;;;21.40;25.50;;;;;;6257028;28;20142;-43
2022/04/03 11:10:14;;;;;;;0.10;0.10;;;21.40;25.40;;;;;;6279891;27;20496;-41
2022/04/03 11:13:16;;;;;;;0.15;0.15;;;21.50;25.40;;;;;;6263911;28;20051;-41
2022/04/03 11:16:20;;;;;;;0.47;0.15;;;21.60;25.40;;;;;;6250494;28;20878;-43
2022/04/03 11:19:36;;;;;;;0.10;0.10;;;21.50;25.30;;;;;;6270970;28;20360;-42
2022/04/03 11:22:38;;;;;;;0.10;0.10;;;21.50;25.20;;;;;;6261354;28;20534;-42
2022/04/03 11:25:39;;;;;;;0.43;0.30;;;21.50;25.70;;;;;;6283569;27;20313;-41
2022/04/03 11:28:42;;;;;;;;;;;21.50;25.10;;;;;;6270235;27;20310;-41
2022/04/03 11:31:45;;;;;;;0.10;0.10;;;21.50;25.20;;;;;;6272585;28;19982;-42
2022/04/03 11:34:57;;;;;;;0.25;0.25;;;21.50;25.10;;;;;;6249250;28;20360;-41
2022/04/03 11:37:59;;;;;;;0.10;0.10;;;21.50;24.90;;;;;;6275042;27;20421;-41
2022/04/03 11:41:03;;;;;;;0.40;0.15;;;21.50;24.90;;;;;;6273812;28;20114;-42
2022/04/03 11:44:06;;;;;;;0.20;0.20;;;21.60;24.80;;;;;;6271012;27;20316;-42
2022/04/03 11:47:19;;;;;;;0.30;0.10;;;21.60;24.70;;;;;;6283447;27;20489;-41
2022/04/03 11:50:21;;;;;;;0.20;0.20;;;21.70;24.70;;;;;;6262808;28;20322;-42
2022/04/03 11:53:24;;;;;;;0.10;0.10;;;21.70;24.70;;;;;;6282671;27;20069;-42
2022/04/03 11:56:28;;;;;;;0.20;0.10;;;21.60;24.60;;;;;;6253300;28;20054;-43
2022/04/03 11:59:33;;;;;;;0.10;0.10;;;21.70;24.60;;;;;;6244285;27;20035;-42
2022/04/03 12:02:34;;;;;;;0.20;0.20;;;21.70;24.60;;;;;;6270607;27;20292;-41
2022/04/03 12:05:41;;;;;;;0.10;0.10;;;21.70;24.60;;;;;;6278975;27;20071;-41
2022/04/03 12:08:43;;;;;;;0.20;0.15;;;21.70;24.50;;;;;;6267541;27;20941;-41
2022/04/03 12:11:48;;;;;;;0.10;0.10;;;21.70;24.50;;;;;;6250109;28;20859;-42
2022/04/03 12:14:50;;;;;;;0.20;0.17;;;21.80;24.50;;;;;;6272216;28;20051;-41
2022/04/03 12:17:55;;;;;;;0.22;0.22;;;21.70;24.40;;;;;;6274240;28;20362;-42
2022/04/03 12:20:58;;;;;;;0.55;0.10;;;21.70;24.40;;;;;;6253521;28;20353;-45
2022/04/03 12:24:09;;;;;;;0.10;0.10;;;21.80;24.40;;;;;;6242130;28;20066;-41
2022/04/03 12:27:19;;;;;;;0.10;0.10;;;21.90;24.40;;;;;;6259665;27;20292;-42
2022/04/03 12:30:21;;;;;;;0.10;0.10;;;21.90;24.40;;;;;;6243808;28;20051;-41
2022/04/03 12:33:22;;;;;;;0.10;0.10;;;21.90;24.40;;;;;;6257547;28;20530;-42
2022/04/03 12:36:26;;;;;;;0.10;0.10;;;21.80;24.30;;;;;;6259386;28;20159;-41
2022/04/03 12:39:33;;;;;;;0.13;0.10;;;21.80;24.20;;;;;;6270172;28;20051;-42
2022/04/03 12:42:36;;;;;;;0.10;0.10;;;21.90;24.20;;;;;;6280043;27;20063;-42
2022/04/03 12:45:37;;;;;;;0.20;0.10;;;21.90;24.20;;;;;;6269519;28;20960;-43
2022/04/03 12:48:39;;;;;;;0.10;0.10;;;21.90;24.20;;;;;;6249092;27;20428;-41
2022/04/03 12:51:45;;;;;;;0.20;0.20;;;22.00;24.20;;;;;;6267126;27;20403;-42
2022/04/03 12:54:47;;;;;;;0.32;0.15;;;21.90;24.10;;;;;;6255793;28;20162;-41
2022/04/03 13:01:26;;;;;;;0.20;0.10;;;22.00;24.10;;;;;;6275013;27;20126;-41
2022/04/03 13:04:30;;;;;;;0.10;0.10;;;22.00;24.10;;;;;;6262113;28;20044;-41
2022/04/03 13:07:32;;;;;;;0.63;0.10;;;22.10;24.10;;;;;;6266557;28;20067;-41
2022/04/03 13:10:34;;;;;;;0.20;0.10;;;22.00;24.20;;;;;;6239571;28;20987;-42
2022/04/03 13:13:37;;;;;;;0.40;0.20;;;22.00;24.10;;;;;;6250427;27;20052;-42
2022/04/03 13:16:39;;;;;;;0.10;0.10;;;22.10;24.10;;;;;;6256415;28;20482;-41
2022/04/03 13:19:41;;;;;;;0.30;0.10;;;22.10;24.10;;;;;;6259490;28;20039;-41
2022/04/03 13:22:42;;;;;;;;;;;22.10;24.00;;;;;;6259776;28;20365;-42
2022/04/03 13:25:48;;;;;;;0.20;0.10;;;22.10;24.00;;;;;;6279359;27;20238;-44
2022/04/03 13:28:50;;;;;;;0.15;0.10;;;22.10;24.00;;;;;;6242952;27;20492;-41
2022/04/03 13:31:51;;;;;;;;;;;22.10;23.90;;;;;;6246113;27;20447;-41
2022/04/03 13:34:53;;;;;;;;;;;22.10;23.90;;;;;;6272947;28;19939;-42
2022/04/03 13:37:55;;;;;;;0.10;0.10;;;22.10;24.00;;;;;;6261998;28;20162;-43
2022/04/03 13:40:57;;;;;;;0.25;0.10;;;22.10;24.00;;;;;;6245136;27;20139;-41
2022/04/03 13:43:58;;;;;;;;;;;22.10;23.90;;;;;;6267541;28;20114;-42
2022/04/03 13:47:00;;;;;;;0.10;0.10;;;22.10;23.90;;;;;;6252529;28;20224;-42
2022/04/03 13:50:01;;;;;;;;;;;22.30;24.00;;;;;;6250744;28;20050;-43
2022/04/03 13:53:04;;;;;;;0.03;0.03;;;22.20;23.90;;;;;;6250371;28;20209;-41
2022/04/03 13:56:07;;;;;;;0.13;0.10;;;22.10;23.80;;;;;;6236638;28;20830;-42
2022/04/03 13:59:08;;;;;;;0.10;0.10;;;22.20;23.90;;;;;;6223807;28;20260;-43
2022/04/03 14:02:10;;;;;;;0.22;0.20;;;22.20;23.80;;;;;;6244739;28;20231;-41
2022/04/03 14:05:12;;;;;;;;;;;22.20;23.70;;;;;;6273026;28;20058;-44
2022/04/03 14:08:14;;;;;;;0.10;0.10;;;22.00;23.70;;;;;;6261925;27;20294;-41
2022/04/03 14:11:17;;;;;;;0.10;0.10;;;22.20;23.80;;;;;;6275378;28;20192;-42
2022/04/03 14:14:18;;;;;;;0.63;0.10;;;22.20;23.70;;;;;;6256527;28;20531;-42
2022/04/03 14:17:20;;;;;;;0.22;0.20;;;22.40;23.70;;;;;;6244039;28;20287;-41
2022/04/03 14:20:22;;;;;;;0.10;0.10;;;22.20;23.60;;;;;;6254855;28;20587;-41
2022/04/03 14:23:26;;;;;;;0.75;0.22;;;22.30;23.70;;;;;;6262015;28;20051;-42
2022/04/03 14:26:28;;;;;;;0.10;0.10;;;22.30;23.70;;;;;;6278928;28;21872;-41
2022/04/03 14:29:30;;;;;;;0.15;0.15;;;22.30;23.60;;;;;;6247474;28;20053;-42
2022/04/03 14:32:32;;;;;;;0.30;0.20;;;22.30;23.60;;;;;;6272706;27;20562;-42
2022/04/03 14:35:35;;;;;;;0.10;0.10;;;22.30;23.60;;;;;;6259867;28;20242;-41
2022/04/03 14:38:37;;;;;;;0.10;0.10;;;22.30;23.60;;;;;;6236035;28;20169;-41
2022/04/03 14:41:40;;;;;;;0.10;0.10;;;22.30;23.50;;;;;;6269806;28;20048;-42
2022/04/03 14:44:42;;;;;;;0.17;0.10;;;22.30;23.50;;;;;;6263505;28;20134;-41
2022/04/03 14:47:44;;;;;;;0.15;0.10;;;22.30;23.50;;;;;;6269605;28;20257;-41
2022/04/03 14:50:47;;;;;;;0.10;0.10;;;22.20;23.50;;;;;;6254211;27;20300;-44
2022/04/03 14:53:49;;;;;;;0.20;0.10;;;22.30;23.50;;;;;;6262390;28;20158;-41
2022/04/03 14:56:50;;;;;;;0.10;0.10;;;22.20;23.50;;;;;;6271682;27;20244;-41
2022/04/03 14:59:52;;;;;;;0.10;0.10;;;22.30;23.60;;;;;;6274140;27;20532;-41
2022/04/03 15:02:54;;;;;;;0.25;0.10;;;22.40;23.60;;;;;;6260349;28;20214;-42
2022/04/03 15:05:55;;;;;;;0.38;0.10;;;22.40;23.60;;;;;;6260756;28;21267;-45
2022/04/03 15:08:57;;;;;;;;;;;22.40;23.60;;;;;;6271334;27;20447;-41
2022/04/03 15:11:59;;;;;;;0.10;0.10;;;22.40;23.70;;;;;;6242295;28;20035;-41
2022/04/03 15:15:01;;;;;;;0.20;0.20;;;22.40;23.70;;;;;;6251396;28;20043;-41
2022/04/03 15:18:03;;;;;;;0.20;0.13;;;22.40;23.70;;;;;;6279093;27;20280;-43
2022/04/03 15:21:09;;;;;;;0.13;0.10;;;22.20;23.70;;;;;;6275026;28;21194;-41
2022/04/03 15:24:11;;;;;;;;;;;22.40;23.80;;;;;;6261179;28;20132;-44
2022/04/03 15:27:13;;;;;;;0.20;0.10;;;22.40;23.90;;;;;;6261732;28;19934;-42
2022/04/03 15:30:15;;;;;;;0.35;0.17;;;22.40;23.80;;;;;;6260076;28;20432;-42
2022/04/03 15:33:17;;;;;;;0.40;0.13;;;22.30;23.90;;;;;;6243243;28;20457;-41
2022/04/03 15:36:20;;;;;;;0.10;0.10;;;22.40;23.90;;;;;;6260444;28;20427;-41
2022/04/03 15:39:22;;;;;;;0.10;0.10;;;22.40;24.00;;;;;;6260316;28;20668;-42
2022/04/03 15:42:23;;;;;;;0.10;0.10;;;22.40;24.00;;;;;;6278995;28;20599;-41
2022/04/03 15:45:25;;;;;;;0.20;0.20;;;22.40;24.10;;;;;;6280460;27;20154;-42
2022/04/03 15:48:27;;;;;;;0.20;0.20;;;22.40;24.10;;;;;;6264478;28;20383;-41
2022/04/03 15:51:29;;;;;;;0.00;0.00;;;22.40;24.20;;;;;;6271374;27;20039;-42
2022/04/03 15:54:31;;;;;;;0.20;0.13;;;22.40;24.10;;;;;;6263045;27;20776;-41
2022/04/03 15:57:38;;;;;;;0.20;0.10;;;22.30;24.10;;;;;;6258810;28;20043;-41
2022/04/03 16:00:40;;;;;;;0.20;0.10;;;22.40;24.20;;;;;;6258495;28;20574;-41
2022/04/03 16:03:41;;;;;;;0.15;0.13;;;22.50;24.20;;;;;;6263164;28;20329;-41
2022/04/03 16:06:43;;;;;;;0.08;0.03;;;22.50;24.30;;;;;;6263636;28;20260;-41